sensor_id;sensor_type;location;lat;lon;timestamp;temperature;humidity
46732;DHT22;32477;51.474;5.696;2024-02-04T00:00:15;10.30;99.90
46732;DHT22;32477;51.474;5.696;2024-02-04T00:02:40;10.40;99.90
46732;DHT22;32477;51.474;5.696;2024-02-04T00:05:06;10.40;99.90
46732;DHT22;32477;51.474;5.696;2024-02-04T00:07:32;10.40;99.90
46732;DHT22;32477;51.474;5.696;2024-02-04T00:09:57;10.40;99.90
46732;DHT22;32477;51.474;5.696;2024-02-04T00:12:23;10.40;99.90
46732;DHT22;32477;51.474;5.696;2024-02-04T00:14:49;10.40;99.90
46732;DHT22;32477;51.474;5.696;2024-02-04T00:17:15;10.50;99.90
46732;DHT22;32477;51.474;5.696;2024-02-04T00:19:41;10.40;99.90
46732;DHT22;32477;51.474;5.696;2024-02-04T00:22:07;10.50;99.90
46732;DHT22;32477;51.474;5.696;2024-02-04T00:24:33;10.40;99.90
46732;DHT22;32477;51.474;5.696;2024-02-04T00:26:58;10.50;99.90
46732;DHT22;32477;51.474;5.696;2024-02-04T00:29:24;10.50;99.90
46732;DHT22;32477;51.474;5.696;2024-02-04T00:31:50;10.50;99.90
46732;DHT22;32477;51.474;5.696;2024-02-04T00:34:15;10.50;99.90
46732;DHT22;32477;51.474;5.696;2024-02-04T00:36:41;10.40;99.90
46732;DHT22;32477;51.474;5.696;2024-02-04T00:39:07;10.50;99.90
46732;DHT22;32477;51.474;5.696;2024-02-04T00:41:33;10.50;99.90
46732;DHT22;32477;51.474;5.696;2024-02-04T00:43:59;10.40;99.90
46732;DHT22;32477;51.474;5.696;2024-02-04T00:46:25;10.50;99.90
46732;DHT22;32477;51.474;5.696;2024-02-04T00:48:51;10.50;99.90
46732;DHT22;32477;51.474;5.696;2024-02-04T00:51:16;10.50;99.90
46732;DHT22;32477;51.474;5.696;2024-02-04T00:53:43;10.50;99.90
46732;DHT22;32477;51.474;5.696;2024-02-04T00:56:09;10.40;99.90
46732;DHT22;32477;51.474;5.696;2024-02-04T00:58:35;10.50;99.90
46732;DHT22;32477;51.474;5.696;2024-02-04T01:01:01;10.50;99.90
46732;DHT22;32477;51.474;5.696;2024-02-04T01:03:26;10.40;99.90
46732;DHT22;32477;51.474;5.696;2024-02-04T01:05:52;10.50;99.90
46732;DHT22;32477;51.474;5.696;2024-02-04T01:08:17;10.50;99.90
46732;DHT22;32477;51.474;5.696;2024-02-04T01:10:43;10.50;99.90
46732;DHT22;32477;51.474;5.696;2024-02-04T01:13:08;10.50;99.90
46732;DHT22;32477;51.474;5.696;2024-02-04T01:15:34;10.50;99.90
46732;DHT22;32477;51.474;5.696;2024-02-04T01:18:00;10.50;99.90
46732;DHT22;32477;51.474;5.696;2024-02-04T01:20:26;10.50;99.90
46732;DHT22;32477;51.474;5.696;2024-02-04T01:22:52;10.50;99.90
46732;DHT22;32477;51.474;5.696;2024-02-04T01:25:18;10.50;99.90
46732;DHT22;32477;51.474;5.696;2024-02-04T01:27:43;10.50;99.90
46732;DHT22;32477;51.474;5.696;2024-02-04T01:30:09;10.60;99.90
46732;DHT22;32477;51.474;5.696;2024-02-04T01:32:35;10.60;99.90
46732;DHT22;32477;51.474;5.696;2024-02-04T01:35:00;10.50;99.90
46732;DHT22;32477;51.474;5.696;2024-02-04T01:37:26;10.60;99.90
46732;DHT22;32477;51.474;5.696;2024-02-04T01:39:51;10.60;99.90
46732;DHT22;32477;51.474;5.696;2024-02-04T01:42:17;10.60;99.90
46732;DHT22;32477;51.474;5.696;2024-02-04T01:44:43;10.60;99.90
46732;DHT22;32477;51.474;5.696;2024-02-04T01:47:08;10.60;99.90
46732;DHT22;32477;51.474;5.696;2024-02-04T01:49:35;10.60;99.90
46732;DHT22;32477;51.474;5.696;2024-02-04T01:52:02;10.60;99.90
46732;DHT22;32477;51.474;5.696;2024-02-04T01:54:30;10.60;99.90
46732;DHT22;32477;51.474;5.696;2024-02-04T01:56:58;10.70;99.90
46732;DHT22;32477;51.474;5.696;2024-02-04T01:59:29;10.70;99.90
46732;DHT22;32477;51.474;5.696;2024-02-04T02:02:05;10.70;99.90
46732;DHT22;32477;51.474;5.696;2024-02-04T02:04:31;10.70;99.90
46732;DHT22;32477;51.474;5.696;2024-02-04T02:06:57;10.70;99.90
46732;DHT22;32477;51.474;5.696;2024-02-04T02:09:25;10.60;99.90
46732;DHT22;32477;51.474;5.696;2024-02-04T02:12:01;10.60;99.90
46732;DHT22;32477;51.474;5.696;2024-02-04T02:14:32;10.60;99.90
46732;DHT22;32477;51.474;5.696;2024-02-04T02:17:02;10.70;99.90
46732;DHT22;32477;51.474;5.696;2024-02-04T02:22:38;10.70;99.90
46732;DHT22;32477;51.474;5.696;2024-02-04T02:25:05;10.70;99.90
46732;DHT22;32477;51.474;5.696;2024-02-04T02:27:33;10.70;99.90
46732;DHT22;32477;51.474;5.696;2024-02-04T02:29:58;10.70;99.90
46732;DHT22;32477;51.474;5.696;2024-02-04T02:32:24;10.70;99.90
46732;DHT22;32477;51.474;5.696;2024-02-04T02:34:50;10.70;99.90
46732;DHT22;32477;51.474;5.696;2024-02-04T02:37:26;10.70;99.90
46732;DHT22;32477;51.474;5.696;2024-02-04T02:40:00;10.70;99.90
46732;DHT22;32477;51.474;5.696;2024-02-04T02:42:27;10.70;99.90
46732;DHT22;32477;51.474;5.696;2024-02-04T02:44:54;10.70;99.90
46732;DHT22;32477;51.474;5.696;2024-02-04T02:47:22;10.70;99.90
46732;DHT22;32477;51.474;5.696;2024-02-04T02:49:51;10.70;99.90
46732;DHT22;32477;51.474;5.696;2024-02-04T02:52:17;10.60;99.90
46732;DHT22;32477;51.474;5.696;2024-02-04T02:54:42;10.70;99.90
46732;DHT22;32477;51.474;5.696;2024-02-04T02:57:08;10.60;99.90
46732;DHT22;32477;51.474;5.696;2024-02-04T02:59:34;10.70;99.90
46732;DHT22;32477;51.474;5.696;2024-02-04T03:02:00;10.70;99.90
46732;DHT22;32477;51.474;5.696;2024-02-04T03:04:25;10.70;99.90
46732;DHT22;32477;51.474;5.696;2024-02-04T03:06:51;10.70;99.90
46732;DHT22;32477;51.474;5.696;2024-02-04T03:09:16;10.70;99.90
46732;DHT22;32477;51.474;5.696;2024-02-04T03:11:42;10.60;99.90
46732;DHT22;32477;51.474;5.696;2024-02-04T03:14:08;10.60;99.90
46732;DHT22;32477;51.474;5.696;2024-02-04T03:16:33;10.60;99.90
46732;DHT22;32477;51.474;5.696;2024-02-04T03:18:59;10.60;99.90
46732;DHT22;32477;51.474;5.696;2024-02-04T03:21:25;10.60;99.90
46732;DHT22;32477;51.474;5.696;2024-02-04T03:23:50;10.60;99.90
46732;DHT22;32477;51.474;5.696;2024-02-04T03:26:19;10.60;99.90
46732;DHT22;32477;51.474;5.696;2024-02-04T03:28:45;10.60;99.90
46732;DHT22;32477;51.474;5.696;2024-02-04T03:31:10;10.60;99.90
46732;DHT22;32477;51.474;5.696;2024-02-04T03:33:36;10.50;99.90
46732;DHT22;32477;51.474;5.696;2024-02-04T03:36:01;10.50;99.90
46732;DHT22;32477;51.474;5.696;2024-02-04T03:38:27;10.50;99.90
46732;DHT22;32477;51.474;5.696;2024-02-04T03:40:54;10.50;99.90
46732;DHT22;32477;51.474;5.696;2024-02-04T03:43:19;10.50;99.90
46732;DHT22;32477;51.474;5.696;2024-02-04T03:45:45;10.50;99.90
46732;DHT22;32477;51.474;5.696;2024-02-04T03:48:10;10.40;99.90
46732;DHT22;32477;51.474;5.696;2024-02-04T03:50:36;10.40;99.90
46732;DHT22;32477;51.474;5.696;2024-02-04T03:53:02;10.40;99.90
46732;DHT22;32477;51.474;5.696;2024-02-04T03:55:28;10.40;99.90
46732;DHT22;32477;51.474;5.696;2024-02-04T03:57:54;10.40;99.90
46732;DHT22;32477;51.474;5.696;2024-02-04T04:00:22;10.40;99.90
46732;DHT22;32477;51.474;5.696;2024-02-04T04:02:48;10.50;99.90
46732;DHT22;32477;51.474;5.696;2024-02-04T04:05:13;10.50;99.90
46732;DHT22;32477;51.474;5.696;2024-02-04T04:07:40;10.60;99.90
46732;DHT22;32477;51.474;5.696;2024-02-04T04:10:06;10.60;99.90
46732;DHT22;32477;51.474;5.696;2024-02-04T04:12:31;10.60;99.90
46732;DHT22;32477;51.474;5.696;2024-02-04T04:14:57;10.60;99.90
46732;DHT22;32477;51.474;5.696;2024-02-04T04:17:23;10.50;99.90
46732;DHT22;32477;51.474;5.696;2024-02-04T04:19:48;10.50;99.90
46732;DHT22;32477;51.474;5.696;2024-02-04T04:22:14;10.50;99.90
46732;DHT22;32477;51.474;5.696;2024-02-04T04:24:40;10.60;99.90
46732;DHT22;32477;51.474;5.696;2024-02-04T04:27:05;10.60;99.90
46732;DHT22;32477;51.474;5.696;2024-02-04T04:29:31;10.60;99.90
46732;DHT22;32477;51.474;5.696;2024-02-04T04:31:56;10.60;99.90
46732;DHT22;32477;51.474;5.696;2024-02-04T04:34:22;10.60;99.90
46732;DHT22;32477;51.474;5.696;2024-02-04T04:36:47;10.70;99.90
46732;DHT22;32477;51.474;5.696;2024-02-04T04:39:13;10.70;99.90
46732;DHT22;32477;51.474;5.696;2024-02-04T04:41:42;10.60;99.90
46732;DHT22;32477;51.474;5.696;2024-02-04T04:44:08;10.70;99.90
46732;DHT22;32477;51.474;5.696;2024-02-04T04:46:33;10.70;99.90
46732;DHT22;32477;51.474;5.696;2024-02-04T04:48:59;10.70;99.90
46732;DHT22;32477;51.474;5.696;2024-02-04T04:51:25;10.80;99.90
46732;DHT22;32477;51.474;5.696;2024-02-04T04:53:51;10.80;99.90
46732;DHT22;32477;51.474;5.696;2024-02-04T04:56:16;10.70;99.90
46732;DHT22;32477;51.474;5.696;2024-02-04T04:58:42;10.70;99.90
46732;DHT22;32477;51.474;5.696;2024-02-04T05:01:08;10.70;99.90
46732;DHT22;32477;51.474;5.696;2024-02-04T05:03:33;10.70;99.90
46732;DHT22;32477;51.474;5.696;2024-02-04T05:05:59;10.70;99.90
46732;DHT22;32477;51.474;5.696;2024-02-04T05:08:26;10.80;99.90
46732;DHT22;32477;51.474;5.696;2024-02-04T05:10:52;10.80;99.90
46732;DHT22;32477;51.474;5.696;2024-02-04T05:13:17;10.70;99.90
46732;DHT22;32477;51.474;5.696;2024-02-04T05:15:43;10.70;99.90
46732;DHT22;32477;51.474;5.696;2024-02-04T05:18:08;10.70;99.90
46732;DHT22;32477;51.474;5.696;2024-02-04T05:20:34;10.60;99.90
46732;DHT22;32477;51.474;5.696;2024-02-04T05:23:00;10.60;99.90
46732;DHT22;32477;51.474;5.696;2024-02-04T05:25:26;10.60;99.90
46732;DHT22;32477;51.474;5.696;2024-02-04T05:27:51;10.50;99.90
46732;DHT22;32477;51.474;5.696;2024-02-04T05:30:17;10.50;99.90
46732;DHT22;32477;51.474;5.696;2024-02-04T05:32:43;10.60;99.90
46732;DHT22;32477;51.474;5.696;2024-02-04T05:35:13;10.50;99.90
46732;DHT22;32477;51.474;5.696;2024-02-04T05:37:38;10.50;99.90
46732;DHT22;32477;51.474;5.696;2024-02-04T05:40:04;10.50;99.90
46732;DHT22;32477;51.474;5.696;2024-02-04T05:42:30;10.50;99.90
46732;DHT22;32477;51.474;5.696;2024-02-04T05:44:57;10.60;99.90
46732;DHT22;32477;51.474;5.696;2024-02-04T05:47:23;10.60;99.90
46732;DHT22;32477;51.474;5.696;2024-02-04T05:49:49;10.50;99.90
46732;DHT22;32477;51.474;5.696;2024-02-04T05:52:15;10.50;99.90
46732;DHT22;32477;51.474;5.696;2024-02-04T05:54:40;10.60;99.90
46732;DHT22;32477;51.474;5.696;2024-02-04T05:57:06;10.60;99.90
46732;DHT22;32477;51.474;5.696;2024-02-04T05:59:33;10.60;99.90
46732;DHT22;32477;51.474;5.696;2024-02-04T06:01:58;10.60;99.90
46732;DHT22;32477;51.474;5.696;2024-02-04T06:04:24;10.60;99.90
46732;DHT22;32477;51.474;5.696;2024-02-04T06:06:49;10.50;99.90
46732;DHT22;32477;51.474;5.696;2024-02-04T06:09:15;10.50;99.90
46732;DHT22;32477;51.474;5.696;2024-02-04T06:11:44;10.50;99.90
46732;DHT22;32477;51.474;5.696;2024-02-04T06:14:10;10.50;99.90
46732;DHT22;32477;51.474;5.696;2024-02-04T06:16:36;10.50;99.90
46732;DHT22;32477;51.474;5.696;2024-02-04T06:19:02;10.50;99.90
46732;DHT22;32477;51.474;5.696;2024-02-04T06:21:28;10.50;99.90
46732;DHT22;32477;51.474;5.696;2024-02-04T06:23:53;10.50;99.90
46732;DHT22;32477;51.474;5.696;2024-02-04T06:26:19;10.50;99.90
46732;DHT22;32477;51.474;5.696;2024-02-04T06:28:45;10.50;99.90
46732;DHT22;32477;51.474;5.696;2024-02-04T06:31:12;10.50;99.90
46732;DHT22;32477;51.474;5.696;2024-02-04T06:33:38;10.50;99.90
46732;DHT22;32477;51.474;5.696;2024-02-04T06:36:09;10.50;99.90
46732;DHT22;32477;51.474;5.696;2024-02-04T06:38:34;10.50;99.90
46732;DHT22;32477;51.474;5.696;2024-02-04T06:41:00;10.50;99.90
46732;DHT22;32477;51.474;5.696;2024-02-04T06:43:25;10.50;99.90
46732;DHT22;32477;51.474;5.696;2024-02-04T06:45:51;10.50;99.90
46732;DHT22;32477;51.474;5.696;2024-02-04T06:48:19;10.50;99.90
46732;DHT22;32477;51.474;5.696;2024-02-04T06:50:45;10.50;99.90
46732;DHT22;32477;51.474;5.696;2024-02-04T06:53:11;10.50;99.90
46732;DHT22;32477;51.474;5.696;2024-02-04T06:55:36;10.50;99.90
46732;DHT22;32477;51.474;5.696;2024-02-04T06:58:02;10.50;99.90
46732;DHT22;32477;51.474;5.696;2024-02-04T07:00:28;10.50;99.90
46732;DHT22;32477;51.474;5.696;2024-02-04T07:02:53;10.50;99.90
46732;DHT22;32477;51.474;5.696;2024-02-04T07:05:19;10.50;99.90
46732;DHT22;32477;51.474;5.696;2024-02-04T07:07:47;10.50;99.90
46732;DHT22;32477;51.474;5.696;2024-02-04T07:10:13;10.40;99.90
46732;DHT22;32477;51.474;5.696;2024-02-04T07:12:39;10.40;99.90
46732;DHT22;32477;51.474;5.696;2024-02-04T07:15:05;10.40;99.90
46732;DHT22;32477;51.474;5.696;2024-02-04T07:17:30;10.50;99.90
46732;DHT22;32477;51.474;5.696;2024-02-04T07:19:56;10.50;99.90
46732;DHT22;32477;51.474;5.696;2024-02-04T07:22:22;10.50;99.90
46732;DHT22;32477;51.474;5.696;2024-02-04T07:24:47;10.50;99.90
46732;DHT22;32477;51.474;5.696;2024-02-04T07:27:13;10.50;99.90
46732;DHT22;32477;51.474;5.696;2024-02-04T07:29:38;10.50;99.90
46732;DHT22;32477;51.474;5.696;2024-02-04T07:32:04;10.50;99.90
46732;DHT22;32477;51.474;5.696;2024-02-04T07:34:30;10.50;99.90
46732;DHT22;32477;51.474;5.696;2024-02-04T07:36:55;10.40;99.90
46732;DHT22;32477;51.474;5.696;2024-02-04T07:39:21;10.50;99.90
46732;DHT22;32477;51.474;5.696;2024-02-04T07:41:46;10.50;99.90
46732;DHT22;32477;51.474;5.696;2024-02-04T07:44:12;10.50;99.90
46732;DHT22;32477;51.474;5.696;2024-02-04T07:46:38;10.50;99.90
46732;DHT22;32477;51.474;5.696;2024-02-04T07:49:03;10.50;99.90
46732;DHT22;32477;51.474;5.696;2024-02-04T07:51:29;10.50;99.90
46732;DHT22;32477;51.474;5.696;2024-02-04T07:53:55;10.50;99.90
46732;DHT22;32477;51.474;5.696;2024-02-04T07:56:21;10.50;99.90
46732;DHT22;32477;51.474;5.696;2024-02-04T07:58:46;10.60;99.90
46732;DHT22;32477;51.474;5.696;2024-02-04T08:01:12;10.60;99.90
46732;DHT22;32477;51.474;5.696;2024-02-04T08:03:37;10.60;99.90
46732;DHT22;32477;51.474;5.696;2024-02-04T08:06:03;10.70;99.90
46732;DHT22;32477;51.474;5.696;2024-02-04T08:08:29;10.60;99.90
46732;DHT22;32477;51.474;5.696;2024-02-04T08:10:54;10.70;99.90
46732;DHT22;32477;51.474;5.696;2024-02-04T08:13:20;10.70;99.90
46732;DHT22;32477;51.474;5.696;2024-02-04T08:15:46;10.70;99.90
46732;DHT22;32477;51.474;5.696;2024-02-04T08:18:11;10.70;99.90
46732;DHT22;32477;51.474;5.696;2024-02-04T08:20:37;10.70;99.90
46732;DHT22;32477;51.474;5.696;2024-02-04T08:23:03;10.70;99.90
46732;DHT22;32477;51.474;5.696;2024-02-04T08:25:29;10.70;99.90
46732;DHT22;32477;51.474;5.696;2024-02-04T08:27:54;10.70;99.90
46732;DHT22;32477;51.474;5.696;2024-02-04T08:30:20;10.70;99.90
46732;DHT22;32477;51.474;5.696;2024-02-04T08:32:46;10.70;99.90
46732;DHT22;32477;51.474;5.696;2024-02-04T08:35:11;10.70;99.90
46732;DHT22;32477;51.474;5.696;2024-02-04T08:37:37;10.70;99.90
46732;DHT22;32477;51.474;5.696;2024-02-04T08:40:05;10.70;99.90
46732;DHT22;32477;51.474;5.696;2024-02-04T08:42:31;10.70;99.90
46732;DHT22;32477;51.474;5.696;2024-02-04T08:44:57;10.70;99.90
46732;DHT22;32477;51.474;5.696;2024-02-04T08:47:22;10.70;99.90
46732;DHT22;32477;51.474;5.696;2024-02-04T08:49:48;10.60;99.90
46732;DHT22;32477;51.474;5.696;2024-02-04T08:52:13;10.60;99.90
46732;DHT22;32477;51.474;5.696;2024-02-04T08:54:39;10.60;99.90
46732;DHT22;32477;51.474;5.696;2024-02-04T08:57:05;10.60;99.90
46732;DHT22;32477;51.474;5.696;2024-02-04T08:59:30;10.60;99.90
46732;DHT22;32477;51.474;5.696;2024-02-04T09:01:56;10.60;99.90
46732;DHT22;32477;51.474;5.696;2024-02-04T09:04:22;10.70;99.90
46732;DHT22;32477;51.474;5.696;2024-02-04T09:06:48;10.70;99.90
46732;DHT22;32477;51.474;5.696;2024-02-04T09:09:13;10.70;99.90
46732;DHT22;32477;51.474;5.696;2024-02-04T09:11:39;10.70;99.90
46732;DHT22;32477;51.474;5.696;2024-02-04T09:14:04;10.80;99.90
46732;DHT22;32477;51.474;5.696;2024-02-04T09:16:30;10.80;99.90
46732;DHT22;32477;51.474;5.696;2024-02-04T09:18:56;10.80;99.90
46732;DHT22;32477;51.474;5.696;2024-02-04T09:21:21;10.80;99.90
46732;DHT22;32477;51.474;5.696;2024-02-04T09:23:47;10.90;99.90
46732;DHT22;32477;51.474;5.696;2024-02-04T09:26:13;10.90;99.90
46732;DHT22;32477;51.474;5.696;2024-02-04T09:28:39;10.90;99.90
46732;DHT22;32477;51.474;5.696;2024-02-04T09:31:08;11.00;99.90
46732;DHT22;32477;51.474;5.696;2024-02-04T09:33:34;11.10;99.90
46732;DHT22;32477;51.474;5.696;2024-02-04T09:36:00;11.10;99.90
46732;DHT22;32477;51.474;5.696;2024-02-04T09:38:26;11.10;99.90
46732;DHT22;32477;51.474;5.696;2024-02-04T09:40:52;11.20;99.90
46732;DHT22;32477;51.474;5.696;2024-02-04T09:43:18;11.20;99.90
46732;DHT22;32477;51.474;5.696;2024-02-04T09:45:44;11.30;99.90
46732;DHT22;32477;51.474;5.696;2024-02-04T09:48:10;11.20;99.90
46732;DHT22;32477;51.474;5.696;2024-02-04T09:50:37;11.20;99.90
46732;DHT22;32477;51.474;5.696;2024-02-04T09:53:03;11.10;99.90
46732;DHT22;32477;51.474;5.696;2024-02-04T09:55:32;11.00;99.90
46732;DHT22;32477;51.474;5.696;2024-02-04T09:57:58;10.90;99.90
46732;DHT22;32477;51.474;5.696;2024-02-04T10:00:27;11.00;99.90
46732;DHT22;32477;51.474;5.696;2024-02-04T10:02:55;11.00;99.90
46732;DHT22;32477;51.474;5.696;2024-02-04T10:05:21;11.00;99.90
46732;DHT22;32477;51.474;5.696;2024-02-04T10:07:47;10.90;99.90
46732;DHT22;32477;51.474;5.696;2024-02-04T10:10:13;10.90;99.90
46732;DHT22;32477;51.474;5.696;2024-02-04T10:12:38;10.90;99.90
46732;DHT22;32477;51.474;5.696;2024-02-04T10:15:07;10.90;99.90
46732;DHT22;32477;51.474;5.696;2024-02-04T10:17:32;10.90;99.90
46732;DHT22;32477;51.474;5.696;2024-02-04T10:19:58;10.90;99.90
46732;DHT22;32477;51.474;5.696;2024-02-04T10:22:26;10.90;99.90
46732;DHT22;32477;51.474;5.696;2024-02-04T10:24:53;10.90;99.90
46732;DHT22;32477;51.474;5.696;2024-02-04T10:27:19;10.90;99.90
46732;DHT22;32477;51.474;5.696;2024-02-04T10:29:45;11.00;99.90
46732;DHT22;32477;51.474;5.696;2024-02-04T10:32:11;10.90;99.90
46732;DHT22;32477;51.474;5.696;2024-02-04T10:34:38;10.90;99.90
46732;DHT22;32477;51.474;5.696;2024-02-04T10:37:04;10.90;99.90
46732;DHT22;32477;51.474;5.696;2024-02-04T10:39:30;10.90;99.90
46732;DHT22;32477;51.474;5.696;2024-02-04T10:42:01;10.90;99.90
46732;DHT22;32477;51.474;5.696;2024-02-04T10:44:28;11.00;99.90
46732;DHT22;32477;51.474;5.696;2024-02-04T10:47:03;11.00;99.90
46732;DHT22;32477;51.474;5.696;2024-02-04T10:49:30;11.00;99.90
46732;DHT22;32477;51.474;5.696;2024-02-04T10:51:59;11.00;99.90
46732;DHT22;32477;51.474;5.696;2024-02-04T10:54:27;11.00;99.90
46732;DHT22;32477;51.474;5.696;2024-02-04T10:57:03;11.00;99.90
46732;DHT22;32477;51.474;5.696;2024-02-04T10:59:31;11.00;99.90
46732;DHT22;32477;51.474;5.696;2024-02-04T11:01:58;11.00;99.90
46732;DHT22;32477;51.474;5.696;2024-02-04T11:04:24;11.00;99.90
46732;DHT22;32477;51.474;5.696;2024-02-04T11:06:50;11.00;99.90
46732;DHT22;32477;51.474;5.696;2024-02-04T11:09:19;11.00;99.90
46732;DHT22;32477;51.474;5.696;2024-02-04T11:11:45;11.00;99.90
46732;DHT22;32477;51.474;5.696;2024-02-04T11:14:14;10.90;99.90
46732;DHT22;32477;51.474;5.696;2024-02-04T11:19:33;11.00;99.90
46732;DHT22;32477;51.474;5.696;2024-02-04T11:22:17;11.00;99.90
46732;DHT22;32477;51.474;5.696;2024-02-04T11:27:49;10.90;99.90
46732;DHT22;32477;51.474;5.696;2024-02-04T11:30:15;10.90;99.90
46732;DHT22;32477;51.474;5.696;2024-02-04T11:32:41;10.90;99.90
46732;DHT22;32477;51.474;5.696;2024-02-04T11:35:07;10.90;99.90
46732;DHT22;32477;51.474;5.696;2024-02-04T11:37:34;10.90;99.90
46732;DHT22;32477;51.474;5.696;2024-02-04T11:39:59;11.00;99.90
46732;DHT22;32477;51.474;5.696;2024-02-04T11:42:26;11.00;99.90
46732;DHT22;32477;51.474;5.696;2024-02-04T11:45:12;11.00;99.90
46732;DHT22;32477;51.474;5.696;2024-02-04T11:47:38;11.00;99.90
46732;DHT22;32477;51.474;5.696;2024-02-04T11:50:04;11.00;99.90
46732;DHT22;32477;51.474;5.696;2024-02-04T11:52:30;11.00;99.90
46732;DHT22;32477;51.474;5.696;2024-02-04T11:54:56;11.00;99.90
46732;DHT22;32477;51.474;5.696;2024-02-04T11:57:23;11.00;99.90
46732;DHT22;32477;51.474;5.696;2024-02-04T11:59:49;11.00;99.90
46732;DHT22;32477;51.474;5.696;2024-02-04T12:02:16;11.10;99.90
46732;DHT22;32477;51.474;5.696;2024-02-04T12:04:46;11.00;99.90
46732;DHT22;32477;51.474;5.696;2024-02-04T12:07:16;11.10;99.90
46732;DHT22;32477;51.474;5.696;2024-02-04T12:09:43;11.00;99.90
46732;DHT22;32477;51.474;5.696;2024-02-04T12:12:09;11.00;99.90
46732;DHT22;32477;51.474;5.696;2024-02-04T12:14:36;11.00;99.90
46732;DHT22;32477;51.474;5.696;2024-02-04T12:17:11;11.00;99.90
46732;DHT22;32477;51.474;5.696;2024-02-04T12:19:37;11.00;99.90
46732;DHT22;32477;51.474;5.696;2024-02-04T12:22:04;11.10;99.90
46732;DHT22;32477;51.474;5.696;2024-02-04T12:24:35;11.00;99.90
46732;DHT22;32477;51.474;5.696;2024-02-04T12:27:02;11.00;99.90
46732;DHT22;32477;51.474;5.696;2024-02-04T12:29:28;11.10;99.90
46732;DHT22;32477;51.474;5.696;2024-02-04T12:32:01;11.10;99.90
46732;DHT22;32477;51.474;5.696;2024-02-04T12:34:29;11.00;99.90
46732;DHT22;32477;51.474;5.696;2024-02-04T12:36:59;11.10;99.90
46732;DHT22;32477;51.474;5.696;2024-02-04T12:39:25;11.00;99.90
46732;DHT22;32477;51.474;5.696;2024-02-04T12:41:51;11.00;99.90
46732;DHT22;32477;51.474;5.696;2024-02-04T12:44:18;11.10;99.90
46732;DHT22;32477;51.474;5.696;2024-02-04T12:46:43;11.10;99.90
46732;DHT22;32477;51.474;5.696;2024-02-04T12:49:09;11.10;99.90
46732;DHT22;32477;51.474;5.696;2024-02-04T12:51:35;11.10;99.90
46732;DHT22;32477;51.474;5.696;2024-02-04T12:54:06;11.00;99.90
46732;DHT22;32477;51.474;5.696;2024-02-04T12:56:52;11.10;99.90
46732;DHT22;32477;51.474;5.696;2024-02-04T12:59:28;11.10;99.90
46732;DHT22;32477;51.474;5.696;2024-02-04T13:01:58;11.10;99.90
46732;DHT22;32477;51.474;5.696;2024-02-04T13:04:24;11.00;99.90
46732;DHT22;32477;51.474;5.696;2024-02-04T13:06:50;11.00;99.90
46732;DHT22;32477;51.474;5.696;2024-02-04T13:09:17;11.00;99.90
46732;DHT22;32477;51.474;5.696;2024-02-04T13:11:43;11.00;99.90
46732;DHT22;32477;51.474;5.696;2024-02-04T13:14:09;11.10;99.90
46732;DHT22;32477;51.474;5.696;2024-02-04T13:16:35;11.20;99.90
46732;DHT22;32477;51.474;5.696;2024-02-04T13:19:04;11.30;99.90
46732;DHT22;32477;51.474;5.696;2024-02-04T13:21:30;11.40;99.90
46732;DHT22;32477;51.474;5.696;2024-02-04T13:23:56;11.50;99.90
46732;DHT22;32477;51.474;5.696;2024-02-04T13:26:22;11.50;99.90
46732;DHT22;32477;51.474;5.696;2024-02-04T13:28:47;11.50;99.90
46732;DHT22;32477;51.474;5.696;2024-02-04T13:31:13;11.60;99.90
46732;DHT22;32477;51.474;5.696;2024-02-04T13:33:39;11.60;99.90
46732;DHT22;32477;51.474;5.696;2024-02-04T13:36:09;11.60;99.90
46732;DHT22;32477;51.474;5.696;2024-02-04T13:38:35;11.70;99.90
46732;DHT22;32477;51.474;5.696;2024-02-04T13:41:04;11.70;99.90
46732;DHT22;32477;51.474;5.696;2024-02-04T13:43:31;11.70;99.90
46732;DHT22;32477;51.474;5.696;2024-02-04T13:45:59;11.70;99.90
46732;DHT22;32477;51.474;5.696;2024-02-04T13:48:25;11.80;99.90
46732;DHT22;32477;51.474;5.696;2024-02-04T13:50:51;11.90;99.90
46732;DHT22;32477;51.474;5.696;2024-02-04T13:53:17;11.90;99.90
46732;DHT22;32477;51.474;5.696;2024-02-04T13:55:43;11.90;99.90
46732;DHT22;32477;51.474;5.696;2024-02-04T13:58:10;11.90;99.90
46732;DHT22;32477;51.474;5.696;2024-02-04T14:00:36;11.90;99.90
46732;DHT22;32477;51.474;5.696;2024-02-04T14:03:02;12.00;99.90
46732;DHT22;32477;51.474;5.696;2024-02-04T14:05:28;12.00;99.90
46732;DHT22;32477;51.474;5.696;2024-02-04T14:07:54;12.00;99.90
46732;DHT22;32477;51.474;5.696;2024-02-04T14:10:20;12.00;99.90
46732;DHT22;32477;51.474;5.696;2024-02-04T14:12:47;12.00;99.90
46732;DHT22;32477;51.474;5.696;2024-02-04T14:15:12;12.00;99.90
46732;DHT22;32477;51.474;5.696;2024-02-04T14:17:38;12.00;99.90
46732;DHT22;32477;51.474;5.696;2024-02-04T14:20:05;12.10;99.90
46732;DHT22;32477;51.474;5.696;2024-02-04T14:22:31;12.10;99.90
46732;DHT22;32477;51.474;5.696;2024-02-04T14:24:57;12.10;99.90
46732;DHT22;32477;51.474;5.696;2024-02-04T14:27:23;12.10;99.90
46732;DHT22;32477;51.474;5.696;2024-02-04T14:29:49;12.00;99.90
46732;DHT22;32477;51.474;5.696;2024-02-04T14:32:15;12.00;99.90
46732;DHT22;32477;51.474;5.696;2024-02-04T14:34:40;12.00;99.90
46732;DHT22;32477;51.474;5.696;2024-02-04T14:37:06;12.00;99.90
46732;DHT22;32477;51.474;5.696;2024-02-04T14:39:32;12.00;99.90
46732;DHT22;32477;51.474;5.696;2024-02-04T14:41:58;12.00;99.90
46732;DHT22;32477;51.474;5.696;2024-02-04T14:44:23;12.00;99.90
46732;DHT22;32477;51.474;5.696;2024-02-04T14:46:49;12.00;99.90
46732;DHT22;32477;51.474;5.696;2024-02-04T14:49:15;12.10;99.90
46732;DHT22;32477;51.474;5.696;2024-02-04T14:51:41;12.10;99.90
46732;DHT22;32477;51.474;5.696;2024-02-04T14:54:07;12.10;99.90
46732;DHT22;32477;51.474;5.696;2024-02-04T14:56:42;12.10;99.90
46732;DHT22;32477;51.474;5.696;2024-02-04T14:59:11;12.10;99.90
46732;DHT22;32477;51.474;5.696;2024-02-04T15:01:37;12.10;99.90
46732;DHT22;32477;51.474;5.696;2024-02-04T15:04:03;12.10;99.90
46732;DHT22;32477;51.474;5.696;2024-02-04T15:06:30;12.10;99.90
46732;DHT22;32477;51.474;5.696;2024-02-04T15:08:56;12.10;99.90
46732;DHT22;32477;51.474;5.696;2024-02-04T15:11:23;12.10;99.90
46732;DHT22;32477;51.474;5.696;2024-02-04T15:13:49;12.00;99.90
46732;DHT22;32477;51.474;5.696;2024-02-04T15:16:15;12.00;99.90
46732;DHT22;32477;51.474;5.696;2024-02-04T15:18:41;12.00;99.90
46732;DHT22;32477;51.474;5.696;2024-02-04T15:21:07;12.00;99.90
46732;DHT22;32477;51.474;5.696;2024-02-04T15:23:32;12.00;99.90
46732;DHT22;32477;51.474;5.696;2024-02-04T15:26:01;12.00;99.90
46732;DHT22;32477;51.474;5.696;2024-02-04T15:28:27;11.90;99.90
46732;DHT22;32477;51.474;5.696;2024-02-04T15:30:53;11.90;99.90
46732;DHT22;32477;51.474;5.696;2024-02-04T15:33:19;12.00;99.90